createdAt,value
2018-11-04T00:02:00.203Z,41.00
2018-11-04T00:04:28.659Z,43.92
2018-11-04T00:06:56.888Z,37.85
2018-11-04T00:09:25.145Z,37.90
2018-11-04T00:11:53.395Z,36.55
2018-11-04T00:14:21.700Z,43.53
2018-11-04T00:16:50.298Z,41.13
2018-11-04T00:19:18.866Z,42.67
2018-11-04T00:21:47.154Z,36.03
2018-11-04T00:24:15.701Z,38.65
2018-11-04T00:26:44.021Z,38.85
2018-11-04T00:29:12.357Z,40.12
2018-11-04T00:31:40.645Z,43.70
2018-11-04T00:34:09.143Z,37.88
2018-11-04T00:36:37.452Z,36.23
2018-11-04T00:39:07.667Z,35.75
2018-11-04T00:41:36.026Z,40.03
2018-11-04T00:44:04.291Z,35.68
2018-11-04T00:46:32.747Z,38.42
2018-11-04T00:49:00.996Z,37.63
2018-11-04T00:51:29.715Z,37.78
2018-11-04T00:53:57.977Z,39.15
2018-11-04T00:56:26.290Z,37.30
2018-11-04T00:58:54.499Z,39.90
2018-11-04T01:01:22.765Z,42.93
2018-11-04T01:03:50.990Z,41.60
2018-11-04T01:06:19.202Z,42.25
2018-11-04T01:08:47.526Z,40.93
2018-11-04T01:11:15.711Z,39.65
2018-11-04T01:13:44.036Z,38.00
2018-11-04T01:16:12.268Z,40.53
2018-11-04T01:18:40.686Z,43.10
2018-11-04T01:21:09.131Z,42.75
2018-11-04T01:23:37.354Z,36.00
2018-11-04T01:26:05.607Z,38.35
2018-11-04T01:28:33.793Z,37.23
2018-11-04T01:31:02.249Z,39.37
2018-11-04T01:33:30.578Z,46.08
2018-11-04T01:35:58.803Z,39.65
2018-11-04T01:38:26.989Z,37.87
2018-11-04T01:40:55.222Z,45.70
2018-11-04T01:43:23.458Z,44.85
2018-11-04T01:45:51.834Z,42.63
2018-11-04T01:48:20.068Z,43.65
2018-11-04T01:50:48.495Z,37.55
2018-11-04T01:53:16.717Z,40.57
2018-11-04T01:55:44.930Z,42.25
2018-11-04T01:58:13.174Z,41.63
2018-11-04T02:00:41.387Z,45.77
2018-11-04T02:03:09.613Z,46.13
2018-11-04T02:05:37.982Z,47.23
2018-11-04T02:08:06.883Z,47.05
2018-11-04T02:10:35.121Z,46.35
2018-11-04T02:13:03.557Z,49.08
2018-11-04T02:15:31.757Z,43.30
2018-11-04T02:17:59.991Z,50.60
2018-11-04T02:20:28.433Z,47.58
2018-11-04T02:22:56.671Z,48.33
2018-11-04T02:25:24.904Z,50.00
2018-11-04T02:27:53.112Z,51.48
2018-11-04T02:30:21.427Z,46.37
2018-11-04T02:32:49.810Z,44.40
2018-11-04T02:35:18.088Z,49.65
2018-11-04T02:37:46.338Z,50.88
2018-11-04T02:40:14.579Z,43.68
2018-11-04T02:42:42.843Z,48.17
2018-11-04T02:45:11.543Z,54.75
2018-11-04T02:47:40.000Z,52.38
2018-11-04T02:50:09.183Z,57.90
2018-11-04T02:52:37.441Z,46.20
2018-11-04T02:55:06.389Z,52.17
2018-11-04T02:57:34.718Z,48.55
2018-11-04T03:00:03.035Z,49.38
2018-11-04T03:02:31.238Z,46.85
2018-11-04T03:04:59.467Z,48.48
2018-11-04T03:07:27.702Z,46.40
2018-11-04T03:09:55.914Z,45.65
2018-11-04T03:12:24.147Z,49.38
2018-11-04T03:14:52.648Z,47.45
2018-11-04T03:17:20.866Z,46.68
2018-11-04T03:19:49.453Z,53.60
2018-11-04T03:22:17.949Z,45.78
2018-11-04T03:24:46.203Z,45.98
2018-11-04T03:27:14.393Z,56.83
2018-11-04T03:29:42.630Z,49.20
2018-11-04T03:32:11.172Z,52.58
2018-11-04T03:34:39.400Z,49.93
2018-11-04T03:37:07.845Z,52.03
2018-11-04T03:39:36.067Z,51.08
2018-11-04T03:42:04.299Z,56.40
2018-11-04T03:44:32.570Z,55.73
2018-11-04T03:47:00.898Z,51.63
2018-11-04T03:49:29.186Z,54.50
2018-11-04T03:51:57.528Z,52.40
2018-11-04T03:54:25.730Z,52.65
2018-11-04T03:56:53.990Z,54.00
2018-11-04T03:59:22.237Z,53.75
2018-11-04T04:01:50.482Z,48.35
2018-11-04T04:04:18.680Z,55.80
2018-11-04T04:06:46.871Z,53.85
2018-11-04T04:09:15.078Z,51.80
2018-11-04T04:11:43.238Z,54.23
2018-11-04T04:14:11.462Z,56.42
2018-11-04T04:16:39.905Z,49.17
2018-11-04T04:19:10.479Z,58.60
2018-11-04T04:21:38.655Z,51.50
2018-11-04T04:24:07.357Z,47.50
2018-11-04T04:26:35.624Z,56.53
2018-11-04T04:29:04.243Z,50.30
2018-11-04T04:31:32.949Z,52.75
2018-11-04T04:34:01.386Z,49.45
2018-11-04T04:36:29.569Z,56.77
2018-11-04T04:38:57.983Z,54.38
2018-11-04T04:41:26.213Z,56.73
2018-11-04T04:43:54.485Z,46.65
2018-11-04T04:46:22.832Z,50.20
2018-11-04T04:48:51.224Z,50.87
2018-11-04T04:51:19.447Z,54.40
2018-11-04T04:53:48.164Z,55.12
2018-11-04T04:56:16.415Z,60.17
2018-11-04T04:58:44.609Z,54.73
2018-11-04T05:01:12.790Z,54.98
2018-11-04T05:03:40.973Z,59.60
2018-11-04T05:06:09.425Z,56.45
2018-11-04T05:08:37.621Z,63.48
2018-11-04T05:11:05.850Z,61.15
2018-11-04T05:13:34.038Z,63.70
2018-11-04T05:16:02.483Z,57.25
2018-11-04T05:18:30.711Z,54.83
2018-11-04T05:20:58.921Z,59.10
2018-11-04T05:23:27.333Z,61.63
2018-11-04T05:25:55.785Z,55.03
2018-11-04T05:28:24.129Z,65.50
2018-11-04T05:30:52.593Z,60.67
2018-11-04T05:33:20.990Z,61.63
2018-11-04T05:35:49.251Z,63.77
2018-11-04T05:38:17.670Z,57.73
2018-11-04T05:40:46.410Z,60.75
2018-11-04T05:43:14.597Z,59.30
2018-11-04T05:45:43.281Z,65.08
2018-11-04T05:48:11.591Z,66.07
2018-11-04T05:50:39.886Z,62.37
2018-11-04T05:53:08.106Z,65.92
2018-11-04T05:55:36.306Z,70.08
2018-11-04T05:58:04.925Z,59.25
2018-11-04T06:00:33.127Z,59.88
2018-11-04T06:03:01.303Z,63.08
2018-11-04T06:05:29.793Z,56.23
2018-11-04T06:07:57.957Z,70.53
2018-11-04T06:10:26.362Z,65.57
2018-11-04T06:12:54.556Z,68.70
2018-11-04T06:15:22.753Z,66.22
2018-11-04T06:17:51.162Z,59.25
2018-11-04T06:20:19.371Z,63.80
2018-11-04T06:22:47.567Z,70.95
2018-11-04T06:25:15.803Z,62.67
2018-11-04T06:27:43.974Z,65.27
2018-11-04T06:30:13.722Z,66.13
2018-11-04T06:32:42.681Z,71.43
2018-11-04T06:35:11.125Z,66.97
2018-11-04T06:37:39.337Z,67.97
2018-11-04T06:40:08.115Z,63.42
2018-11-04T06:42:36.309Z,67.42
2018-11-04T06:45:05.381Z,57.88
2018-11-04T06:47:33.903Z,61.30
2018-11-04T06:50:02.494Z,59.88
2018-11-04T06:52:31.097Z,61.53
2018-11-04T06:54:59.283Z,45.55
2018-11-04T06:57:27.488Z,59.05
2018-11-04T06:59:55.685Z,57.83
2018-11-04T07:02:24.077Z,63.33
2018-11-04T07:04:52.527Z,61.23
2018-11-04T07:07:21.143Z,56.73
2018-11-04T07:09:49.541Z,54.57
2018-11-04T07:12:19.302Z,56.77
2018-11-04T07:14:47.482Z,85.10
2018-11-04T07:17:16.134Z,60.12
2018-11-04T07:19:44.585Z,63.08
2018-11-04T07:22:17.478Z,55.52
2018-11-04T07:24:45.653Z,59.47
2018-11-04T07:27:13.854Z,49.55
2018-11-04T07:29:42.103Z,55.58
2018-11-04T07:32:10.516Z,52.83
2018-11-04T07:34:38.932Z,50.83
2018-11-04T07:37:07.373Z,56.55
2018-11-04T07:39:35.610Z,59.53
2018-11-04T07:42:04.386Z,50.70
2018-11-04T07:44:32.597Z,50.67
2018-11-04T07:47:01.085Z,56.20
2018-11-04T07:49:30.392Z,57.20
2018-11-04T07:51:58.657Z,49.70
2018-11-04T07:54:27.119Z,51.60
2018-11-04T07:56:55.673Z,57.25
2018-11-04T07:59:24.040Z,57.62
2018-11-04T08:01:52.338Z,55.83
2018-11-04T08:04:20.905Z,56.20
2018-11-04T08:06:49.027Z,50.30
2018-11-04T08:09:17.463Z,53.30
2018-11-04T08:11:45.703Z,51.83
2018-11-04T08:14:13.894Z,53.00
2018-11-04T08:16:42.078Z,54.23
2018-11-04T08:19:10.255Z,55.57
2018-11-04T08:21:38.497Z,58.55
2018-11-04T08:24:06.758Z,47.67
2018-11-04T08:26:34.969Z,53.87
2018-11-04T08:29:03.218Z,52.17
2018-11-04T08:31:31.546Z,50.37
2018-11-04T08:33:59.769Z,49.98
2018-11-04T08:36:28.052Z,43.30
2018-11-04T08:38:56.412Z,52.97
2018-11-04T08:41:24.914Z,44.95
2018-11-04T08:43:53.189Z,44.50
2018-11-04T08:46:21.427Z,44.23
2018-11-04T08:48:49.646Z,46.50
2018-11-04T08:51:17.850Z,46.08
2018-11-04T08:53:46.046Z,46.70
2018-11-04T08:56:14.227Z,46.90
2018-11-04T08:58:42.458Z,43.97
2018-11-04T09:01:10.650Z,43.57
2018-11-04T09:03:38.869Z,53.20
2018-11-04T09:06:07.052Z,47.23
2018-11-04T09:08:35.794Z,47.10
2018-11-04T09:11:04.227Z,44.50
2018-11-04T09:13:32.425Z,40.77
2018-11-04T09:16:00.675Z,49.43
2018-11-04T09:18:28.887Z,44.18
2018-11-04T09:20:57.085Z,48.28
2018-11-04T09:23:25.290Z,39.90
2018-11-04T09:25:53.453Z,48.97
2018-11-04T09:28:22.392Z,51.10
2018-11-04T09:30:50.602Z,36.87
2018-11-04T09:33:18.981Z,46.63
2018-11-04T09:35:48.256Z,40.70
2018-11-04T09:38:16.266Z,42.20
2018-11-04T09:40:44.508Z,40.73
2018-11-04T09:43:12.725Z,45.08
2018-11-04T09:45:41.187Z,47.97
2018-11-04T09:48:09.430Z,42.53
2018-11-04T09:50:37.622Z,55.23
2018-11-04T09:53:05.844Z,40.20
2018-11-04T09:55:34.029Z,42.97
2018-11-04T09:58:02.253Z,43.53
2018-11-04T10:00:30.433Z,42.10
2018-11-04T10:02:58.692Z,46.90
2018-11-04T10:05:27.098Z,49.17
2018-11-04T10:07:55.307Z,51.50
2018-11-04T10:10:23.521Z,41.10
2018-11-04T10:12:51.964Z,40.37
2018-11-04T10:15:20.198Z,42.37
2018-11-04T10:17:48.409Z,46.40
2018-11-04T10:20:16.970Z,39.67
2018-11-04T10:22:44.793Z,45.97
2018-11-04T10:25:13.596Z,48.73
2018-11-04T10:27:42.478Z,40.63
2018-11-04T10:30:13.934Z,43.97
2018-11-04T10:32:42.285Z,39.07
2018-11-04T10:35:10.985Z,42.23
2018-11-04T10:37:40.204Z,40.90
2018-11-04T10:40:09.594Z,46.48
2018-11-04T10:42:38.023Z,44.47
2018-11-04T10:45:07.377Z,47.40
2018-11-04T10:47:35.829Z,39.23
2018-11-04T10:50:11.059Z,44.70
2018-11-04T10:52:39.282Z,44.73
2018-11-04T10:55:08.602Z,45.27
2018-11-04T10:57:38.986Z,41.43
2018-11-04T11:00:13.222Z,42.40
2018-11-04T11:02:41.664Z,40.98
2018-11-04T11:05:10.041Z,43.70
2018-11-04T11:07:38.885Z,39.27
2018-11-04T11:10:08.372Z,38.40
2018-11-04T11:12:36.561Z,34.47
2018-11-04T11:15:05.824Z,39.10
2018-11-04T11:17:34.305Z,38.03
2018-11-04T11:20:02.521Z,36.37
2018-11-04T11:22:31.028Z,36.13
2018-11-04T11:24:59.170Z,34.73
2018-11-04T11:27:27.364Z,40.13
2018-11-04T11:29:55.632Z,37.93
2018-11-04T11:32:23.817Z,36.33
2018-11-04T11:34:52.210Z,31.47
2018-11-04T11:37:20.488Z,33.13
2018-11-04T11:39:48.606Z,35.33
2018-11-04T11:42:16.837Z,40.28
2018-11-04T11:44:45.074Z,35.97
2018-11-04T11:47:13.250Z,31.40
2018-11-04T11:49:41.873Z,31.83
2018-11-04T11:52:10.043Z,35.30
2018-11-04T11:54:38.414Z,37.67
2018-11-04T11:57:06.609Z,27.25
2018-11-04T11:59:35.912Z,30.20
2018-11-04T12:02:04.121Z,29.70
2018-11-04T12:04:32.314Z,29.50
2018-11-04T12:07:00.519Z,31.93
2018-11-04T12:09:28.718Z,30.63
2018-11-04T12:11:56.931Z,27.67
2018-11-04T12:14:25.130Z,28.73
2018-11-04T12:16:54.538Z,26.90
2018-11-04T12:19:23.071Z,29.73
2018-11-04T12:21:51.332Z,28.23
2018-11-04T12:24:20.075Z,28.30
2018-11-04T12:26:48.390Z,24.77
2018-11-04T12:29:16.679Z,29.17
2018-11-04T12:31:44.863Z,29.77
2018-11-04T12:34:13.439Z,36.77
2018-11-04T12:36:41.839Z,38.87
2018-11-04T12:39:11.065Z,40.13
2018-11-04T12:41:39.433Z,36.50
2018-11-04T12:44:08.720Z,36.33
2018-11-04T12:46:37.267Z,33.20
2018-11-04T12:49:05.963Z,38.10
2018-11-04T12:51:34.377Z,40.53
2018-11-04T12:54:02.641Z,45.00
2018-11-04T12:56:31.089Z,39.80
2018-11-04T12:58:59.271Z,37.87
2018-11-04T13:01:27.466Z,39.90
2018-11-04T13:03:55.854Z,41.23
2018-11-04T13:06:24.161Z,42.50
2018-11-04T13:08:52.449Z,39.63
2018-11-04T13:11:20.677Z,46.33
2018-11-04T13:13:48.850Z,38.03
2018-11-04T13:16:17.095Z,38.97
2018-11-04T13:18:45.305Z,44.90
2018-11-04T13:21:13.974Z,44.77
2018-11-04T13:23:42.141Z,43.97
2018-11-04T13:26:10.438Z,45.77
2018-11-04T13:28:39.003Z,51.30
2018-11-04T13:31:07.255Z,44.63
2018-11-04T13:33:35.437Z,41.90
2018-11-04T13:36:03.776Z,47.25
2018-11-04T13:38:31.946Z,42.00
2018-11-04T13:41:00.251Z,37.80
2018-11-04T13:43:28.708Z,42.40
2018-11-04T13:45:57.298Z,39.67
2018-11-04T13:48:25.507Z,47.27
2018-11-04T13:50:53.715Z,44.60
2018-11-04T13:53:21.914Z,42.90
2018-11-04T13:55:50.106Z,44.05
2018-11-04T13:58:18.282Z,43.00
2018-11-04T14:00:46.587Z,40.07
2018-11-04T14:03:14.826Z,36.63
2018-11-04T14:05:43.304Z,36.40
2018-11-04T14:08:11.567Z,44.57
2018-11-04T14:10:39.817Z,37.83
2018-11-04T14:13:08.357Z,39.03
2018-11-04T14:15:36.672Z,43.58
2018-11-04T14:18:04.988Z,37.60
2018-11-04T14:20:33.392Z,40.63
2018-11-04T14:23:02.122Z,44.42
2018-11-04T14:25:30.818Z,42.45
2018-11-04T14:27:59.246Z,41.48
2018-11-04T14:30:27.453Z,42.05
2018-11-04T14:32:55.693Z,47.90
2018-11-04T14:35:24.260Z,41.48
2018-11-04T14:37:52.476Z,38.40
2018-11-04T14:40:20.681Z,38.67
2018-11-04T14:42:49.103Z,40.28
2018-11-04T14:45:17.354Z,38.65
2018-11-04T14:47:45.573Z,40.75
2018-11-04T14:50:14.843Z,41.25
2018-11-04T14:52:43.924Z,42.78
2018-11-04T14:55:12.130Z,37.00
2018-11-04T14:57:40.663Z,36.50
2018-11-04T15:00:11.308Z,42.20
2018-11-04T15:02:39.658Z,43.28
2018-11-04T15:05:08.342Z,43.00
2018-11-04T15:07:36.626Z,41.28
2018-11-04T15:10:05.682Z,40.45
2018-11-04T15:12:34.137Z,41.00
2018-11-04T15:15:02.367Z,51.90
2018-11-04T15:17:30.637Z,35.80
2018-11-04T15:19:58.838Z,40.53
2018-11-04T15:22:27.779Z,41.87
2018-11-04T15:24:56.056Z,37.17
2018-11-04T15:27:24.386Z,35.80
2018-11-04T15:29:52.599Z,34.50
2018-11-04T15:32:20.823Z,30.97
2018-11-04T15:34:49.336Z,33.33
2018-11-04T15:37:17.614Z,35.25
2018-11-04T15:39:45.813Z,35.03
2018-11-04T15:42:14.057Z,31.48
2018-11-04T15:44:42.262Z,35.15
2018-11-04T15:47:10.651Z,35.30
2018-11-04T15:49:38.886Z,31.27
2018-11-04T15:52:07.323Z,37.48
2018-11-04T15:54:35.518Z,40.17
2018-11-04T15:57:09.042Z,38.30
2018-11-04T15:59:37.240Z,35.33
2018-11-04T16:02:05.430Z,33.30
2018-11-04T16:04:44.544Z,31.87
2018-11-04T16:07:02.785Z,30.15
2018-11-04T16:09:31.172Z,32.80
2018-11-04T16:11:59.370Z,32.25
2018-11-04T16:14:27.628Z,32.05
2018-11-04T16:16:55.827Z,31.30
2018-11-04T16:19:24.492Z,32.05
2018-11-04T16:21:54.042Z,39.00
2018-11-04T16:24:22.539Z,33.13
2018-11-04T16:26:50.798Z,32.20
2018-11-04T16:29:18.999Z,31.97
2018-11-04T16:31:47.249Z,32.17
2018-11-04T16:34:15.412Z,31.83
2018-11-04T16:36:43.646Z,31.23
2018-11-04T16:39:11.865Z,29.90
2018-11-04T16:41:43.778Z,28.23
2018-11-04T16:44:12.505Z,29.85
2018-11-04T16:46:41.094Z,32.10
2018-11-04T16:49:09.663Z,29.00
2018-11-04T16:51:39.466Z,33.92
2018-11-04T16:54:08.018Z,31.13
2018-11-04T16:56:36.883Z,31.45
2018-11-04T16:59:05.594Z,34.60
2018-11-04T17:01:33.806Z,32.70
2018-11-04T17:04:02.576Z,28.52
2018-11-04T17:06:31.150Z,29.60
2018-11-04T17:08:59.308Z,32.00
2018-11-04T17:11:27.617Z,27.73
2018-11-04T17:13:56.838Z,32.40
2018-11-04T17:16:25.246Z,34.60
2018-11-04T17:18:53.541Z,32.42
2018-11-04T17:21:22.428Z,30.45
2018-11-04T17:23:50.699Z,36.03
2018-11-04T17:26:18.869Z,37.53
2018-11-04T17:28:47.069Z,32.85
2018-11-04T17:31:15.277Z,35.80
2018-11-04T17:33:43.502Z,28.35
2018-11-04T17:36:11.972Z,34.15
2018-11-04T17:38:40.171Z,32.17
2018-11-04T17:41:08.394Z,33.93
2018-11-04T17:43:36.620Z,34.03
2018-11-04T17:46:05.506Z,33.50
2018-11-04T17:48:33.695Z,37.08
2018-11-04T17:51:04.042Z,31.97
2018-11-04T17:53:33.252Z,34.67
2018-11-04T17:56:01.490Z,39.25
2018-11-04T17:58:29.723Z,35.88
2018-11-04T18:00:58.250Z,37.50
2018-11-04T18:03:26.443Z,37.23
2018-11-04T18:05:54.871Z,32.05
2018-11-04T18:08:23.173Z,42.15
2018-11-04T18:10:51.388Z,33.03
2018-11-04T18:13:19.586Z,37.65
2018-11-04T18:15:47.870Z,33.18
2018-11-04T18:18:16.175Z,35.25
2018-11-04T18:20:44.368Z,30.95
2018-11-04T18:23:20.610Z,36.98
2018-11-04T18:25:57.952Z,36.45
2018-11-04T18:28:26.856Z,37.95
2018-11-04T18:30:55.211Z,40.03
2018-11-04T18:33:23.398Z,31.40
2018-11-04T18:35:51.621Z,36.83
2018-11-04T18:38:19.821Z,36.55
2018-11-04T18:40:49.465Z,36.88
2018-11-04T18:43:17.670Z,34.80
2018-11-04T18:45:46.573Z,38.05
2018-11-04T18:48:15.103Z,33.73
2018-11-04T18:50:45.106Z,36.73
2018-11-04T18:53:15.502Z,31.17
2018-11-04T18:55:43.860Z,37.90
2018-11-04T18:58:12.874Z,33.40
2018-11-04T19:00:42.524Z,36.73
2018-11-04T19:03:11.960Z,36.67
2018-11-04T19:05:41.809Z,35.25
2018-11-04T19:08:15.677Z,36.65
2018-11-04T19:10:44.855Z,30.70
2018-11-04T19:13:13.899Z,30.23
2018-11-04T19:15:42.319Z,36.25
2018-11-04T19:18:11.615Z,34.63
2018-11-04T19:20:40.055Z,30.62
2018-11-04T19:23:08.442Z,32.90
2018-11-04T19:25:36.913Z,38.55
2018-11-04T19:28:05.935Z,31.57
2018-11-04T19:30:34.656Z,31.45
2018-11-04T19:33:02.994Z,36.35
2018-11-04T19:35:31.398Z,26.17
2018-11-04T19:37:59.781Z,34.10
2018-11-04T19:40:28.341Z,35.00
2018-11-04T19:42:57.449Z,36.63
2018-11-04T19:45:28.810Z,31.42
2018-11-04T19:47:57.273Z,28.95
2018-11-04T19:50:25.639Z,35.33
2018-11-04T19:52:54.952Z,34.95
2018-11-04T19:55:23.466Z,37.65
2018-11-04T19:57:51.863Z,41.33
2018-11-04T20:00:20.410Z,39.83
2018-11-04T20:02:49.078Z,32.03
2018-11-04T20:05:18.631Z,41.92
2018-11-04T20:07:48.513Z,41.23
2018-11-04T20:10:18.492Z,30.08
2018-11-04T20:12:52.131Z,35.90
2018-11-04T20:15:21.024Z,33.23
2018-11-04T20:17:49.796Z,36.38
2018-11-04T20:20:25.760Z,30.40
2018-11-04T20:22:54.270Z,33.45
2018-11-04T20:25:27.812Z,33.40
2018-11-04T20:27:56.527Z,29.85
2018-11-04T20:30:25.321Z,30.82
2018-11-04T20:32:59.203Z,31.05
2018-11-04T20:35:27.622Z,35.27
2018-11-04T20:37:57.540Z,39.48
2018-11-04T20:40:31.676Z,31.50
2018-11-04T20:43:00.272Z,38.88
2018-11-04T20:45:28.955Z,31.57
2018-11-04T20:48:02.810Z,34.00
2018-11-04T20:50:37.949Z,36.05
2018-11-04T20:53:06.382Z,36.00
2018-11-04T20:55:40.513Z,35.55
2018-11-04T20:58:09.256Z,35.43
2018-11-04T21:00:38.058Z,30.70
2018-11-04T21:03:06.475Z,32.70
2018-11-04T21:05:34.992Z,32.38
2018-11-04T21:08:03.573Z,34.25
2018-11-04T21:10:34.504Z,38.20
2018-11-04T21:13:08.794Z,36.17
2018-11-04T21:15:38.557Z,34.78
2018-11-04T21:18:07.774Z,39.65
2018-11-04T21:20:37.084Z,44.25
2018-11-04T21:23:06.027Z,42.88
2018-11-04T21:25:35.063Z,38.95
2018-11-04T21:28:06.762Z,38.38
2018-11-04T21:30:36.070Z,40.78
2018-11-04T21:33:05.071Z,34.45
2018-11-04T21:35:33.690Z,33.10
2018-11-04T21:38:02.539Z,30.08
2018-11-04T21:40:30.911Z,35.38
2018-11-04T21:42:59.603Z,36.58
2018-11-04T21:45:28.498Z,34.77
2018-11-04T21:47:57.382Z,42.23
2018-11-04T21:50:31.135Z,44.55
2018-11-04T21:53:00.267Z,33.63
2018-11-04T21:55:28.831Z,35.30
2018-11-04T21:57:57.950Z,33.28
2018-11-04T22:00:26.275Z,33.67
2018-11-04T22:02:54.893Z,39.00
2018-11-04T22:05:23.135Z,35.73
2018-11-04T22:07:51.635Z,40.80
2018-11-04T22:10:20.844Z,36.90
2018-11-04T22:12:49.767Z,39.67
2018-11-04T22:15:18.139Z,40.10
2018-11-04T22:17:46.427Z,46.42
2018-11-04T22:20:15.042Z,36.42
2018-11-04T22:22:43.358Z,38.17
2018-11-04T22:25:12.043Z,36.10
2018-11-04T22:27:40.464Z,43.55
2018-11-04T22:30:09.899Z,39.60
2018-11-04T22:32:38.560Z,32.83
2018-11-04T22:35:07.873Z,36.53
2018-11-04T22:37:36.369Z,35.45
2018-11-04T22:40:05.594Z,31.73
2018-11-04T22:42:34.999Z,46.80
2018-11-04T22:45:03.468Z,35.60
2018-11-04T22:47:32.679Z,34.60
2018-11-04T22:50:01.531Z,39.27
2018-11-04T22:52:29.786Z,35.85
2018-11-04T22:54:58.158Z,39.27
2018-11-04T22:57:26.633Z,43.83
2018-11-04T22:59:55.701Z,35.78
2018-11-04T23:02:24.148Z,38.42
2018-11-04T23:04:57.794Z,37.35
2018-11-04T23:07:26.506Z,44.00
2018-11-04T23:09:54.790Z,37.35
2018-11-04T23:12:23.120Z,33.95
2018-11-04T23:14:51.538Z,38.33
2018-11-04T23:17:19.763Z,36.33
2018-11-04T23:19:48.162Z,39.55
2018-11-04T23:22:16.361Z,34.25
2018-11-04T23:24:44.655Z,41.37
2018-11-04T23:27:13.085Z,36.15
2018-11-04T23:29:41.121Z,38.58
2018-11-04T23:32:09.285Z,37.70
2018-11-04T23:34:37.499Z,39.03
2018-11-04T23:37:06.126Z,35.48
2018-11-04T23:39:34.307Z,36.38
2018-11-04T23:42:02.534Z,39.03
2018-11-04T23:44:31.423Z,37.55
2018-11-04T23:47:00.474Z,37.67
2018-11-04T23:49:38.641Z,39.70
2018-11-04T23:52:06.966Z,35.50
2018-11-04T23:54:35.347Z,33.15
2018-11-04T23:57:03.618Z,39.05
2018-11-04T23:59:31.893Z,40.63
